sensor_id;sensor_type;location;lat;lon;timestamp;temperature;humidity
16301;DHT22;8258;51.020;4.248;2023-04-01T00:02:03;9.40;99.90
16301;DHT22;8258;51.020;4.248;2023-04-01T00:04:30;9.40;99.90
16301;DHT22;8258;51.020;4.248;2023-04-01T00:06:57;9.40;99.90
16301;DHT22;8258;51.020;4.248;2023-04-01T00:09:26;9.40;99.90
16301;DHT22;8258;51.020;4.248;2023-04-01T00:11:53;9.40;99.90
16301;DHT22;8258;51.020;4.248;2023-04-01T00:14:20;9.40;99.90
16301;DHT22;8258;51.020;4.248;2023-04-01T00:16:47;9.40;99.90
16301;DHT22;8258;51.020;4.248;2023-04-01T00:19:14;9.40;99.90
16301;DHT22;8258;51.020;4.248;2023-04-01T00:21:41;9.40;99.90
16301;DHT22;8258;51.020;4.248;2023-04-01T00:24:08;9.40;99.90
16301;DHT22;8258;51.020;4.248;2023-04-01T00:26:37;9.40;99.90
16301;DHT22;8258;51.020;4.248;2023-04-01T00:29:04;9.40;99.90
16301;DHT22;8258;51.020;4.248;2023-04-01T00:31:31;9.40;99.90
16301;DHT22;8258;51.020;4.248;2023-04-01T00:33:57;9.40;99.90
16301;DHT22;8258;51.020;4.248;2023-04-01T00:36:24;9.40;99.90
16301;DHT22;8258;51.020;4.248;2023-04-01T00:38:51;9.40;99.90
16301;DHT22;8258;51.020;4.248;2023-04-01T00:41:19;9.40;99.90
16301;DHT22;8258;51.020;4.248;2023-04-01T00:43:50;9.40;99.90
16301;DHT22;8258;51.020;4.248;2023-04-01T00:46:17;9.40;99.90
16301;DHT22;8258;51.020;4.248;2023-04-01T00:48:47;9.40;99.90
16301;DHT22;8258;51.020;4.248;2023-04-01T00:51:18;9.40;99.90
16301;DHT22;8258;51.020;4.248;2023-04-01T00:53:48;9.40;99.90
16301;DHT22;8258;51.020;4.248;2023-04-01T00:56:18;9.40;99.90
16301;DHT22;8258;51.020;4.248;2023-04-01T00:58:50;9.40;99.90
16301;DHT22;8258;51.020;4.248;2023-04-01T01:01:19;9.30;99.90
16301;DHT22;8258;51.020;4.248;2023-04-01T01:03:46;9.40;99.90
16301;DHT22;8258;51.020;4.248;2023-04-01T01:06:30;9.30;99.90
16301;DHT22;8258;51.020;4.248;2023-04-01T01:09:16;9.30;99.90
16301;DHT22;8258;51.020;4.248;2023-04-01T01:11:50;9.30;99.90
16301;DHT22;8258;51.020;4.248;2023-04-01T01:14:33;9.30;99.90
16301;DHT22;8258;51.020;4.248;2023-04-01T01:17:06;9.30;99.90
16301;DHT22;8258;51.020;4.248;2023-04-01T01:19:52;9.30;99.90
16301;DHT22;8258;51.020;4.248;2023-04-01T01:22:41;9.30;99.90
16301;DHT22;8258;51.020;4.248;2023-04-01T01:25:25;9.30;99.90
16301;DHT22;8258;51.020;4.248;2023-04-01T01:28:08;9.30;99.90
16301;DHT22;8258;51.020;4.248;2023-04-01T01:30:49;9.30;99.90
16301;DHT22;8258;51.020;4.248;2023-04-01T01:33:27;9.30;99.90
16301;DHT22;8258;51.020;4.248;2023-04-01T01:36:04;9.30;99.90
16301;DHT22;8258;51.020;4.248;2023-04-01T01:38:34;9.30;99.90
16301;DHT22;8258;51.020;4.248;2023-04-01T01:41:03;9.30;99.90
16301;DHT22;8258;51.020;4.248;2023-04-01T01:43:35;9.30;99.90
16301;DHT22;8258;51.020;4.248;2023-04-01T01:46:07;9.30;99.90
16301;DHT22;8258;51.020;4.248;2023-04-01T01:48:35;9.20;99.90
16301;DHT22;8258;51.020;4.248;2023-04-01T01:51:05;9.20;99.90
16301;DHT22;8258;51.020;4.248;2023-04-01T01:53:32;9.20;99.90
16301;DHT22;8258;51.020;4.248;2023-04-01T01:55:59;9.20;99.90
16301;DHT22;8258;51.020;4.248;2023-04-01T01:58:30;9.10;99.90
16301;DHT22;8258;51.020;4.248;2023-04-01T02:01:00;9.10;99.90
16301;DHT22;8258;51.020;4.248;2023-04-01T02:03:30;9.10;99.90
16301;DHT22;8258;51.020;4.248;2023-04-01T02:06:00;9.10;99.90
16301;DHT22;8258;51.020;4.248;2023-04-01T02:08:33;9.10;99.90
16301;DHT22;8258;51.020;4.248;2023-04-01T02:11:03;9.10;99.90
16301;DHT22;8258;51.020;4.248;2023-04-01T02:13:35;9.10;99.90
16301;DHT22;8258;51.020;4.248;2023-04-01T02:16:11;9.10;99.90
16301;DHT22;8258;51.020;4.248;2023-04-01T02:18:41;9.10;99.90
16301;DHT22;8258;51.020;4.248;2023-04-01T02:21:09;9.10;99.90
16301;DHT22;8258;51.020;4.248;2023-04-01T02:23:38;9.10;99.90
16301;DHT22;8258;51.020;4.248;2023-04-01T02:26:07;9.00;99.90
16301;DHT22;8258;51.020;4.248;2023-04-01T02:28:37;9.00;99.90
16301;DHT22;8258;51.020;4.248;2023-04-01T02:31:05;9.00;99.90
16301;DHT22;8258;51.020;4.248;2023-04-01T02:33:33;9.00;99.90
16301;DHT22;8258;51.020;4.248;2023-04-01T02:36:00;9.00;99.90
16301;DHT22;8258;51.020;4.248;2023-04-01T02:38:27;9.00;99.90
16301;DHT22;8258;51.020;4.248;2023-04-01T02:40:59;9.00;99.90
16301;DHT22;8258;51.020;4.248;2023-04-01T02:43:27;9.00;99.90
16301;DHT22;8258;51.020;4.248;2023-04-01T02:45:54;9.00;99.90
16301;DHT22;8258;51.020;4.248;2023-04-01T02:48:21;9.00;99.90
16301;DHT22;8258;51.020;4.248;2023-04-01T02:50:48;9.00;99.90
16301;DHT22;8258;51.020;4.248;2023-04-01T02:53:16;9.00;99.90
16301;DHT22;8258;51.020;4.248;2023-04-01T02:55:43;9.00;99.90
16301;DHT22;8258;51.020;4.248;2023-04-01T02:58:11;9.00;99.90
16301;DHT22;8258;51.020;4.248;2023-04-01T03:00:38;9.00;99.90
16301;DHT22;8258;51.020;4.248;2023-04-01T03:03:06;9.00;99.90
16301;DHT22;8258;51.020;4.248;2023-04-01T03:05:33;9.00;99.90
16301;DHT22;8258;51.020;4.248;2023-04-01T03:07:59;9.00;99.90
16301;DHT22;8258;51.020;4.248;2023-04-01T03:10:27;9.00;99.90
16301;DHT22;8258;51.020;4.248;2023-04-01T03:12:54;9.10;99.90
16301;DHT22;8258;51.020;4.248;2023-04-01T03:15:22;9.10;99.90
16301;DHT22;8258;51.020;4.248;2023-04-01T03:17:49;9.10;99.90
16301;DHT22;8258;51.020;4.248;2023-04-01T03:20:17;9.00;99.90
16301;DHT22;8258;51.020;4.248;2023-04-01T03:22:44;9.00;99.90
16301;DHT22;8258;51.020;4.248;2023-04-01T03:25:12;9.10;99.90
16301;DHT22;8258;51.020;4.248;2023-04-01T03:27:39;9.10;99.90
16301;DHT22;8258;51.020;4.248;2023-04-01T03:30:07;9.00;99.90
16301;DHT22;8258;51.020;4.248;2023-04-01T03:32:36;9.10;99.90
16301;DHT22;8258;51.020;4.248;2023-04-01T03:35:03;9.10;99.90
16301;DHT22;8258;51.020;4.248;2023-04-01T03:37:31;9.10;99.90
16301;DHT22;8258;51.020;4.248;2023-04-01T03:39:58;9.10;99.90
16301;DHT22;8258;51.020;4.248;2023-04-01T03:42:25;9.10;99.90
16301;DHT22;8258;51.020;4.248;2023-04-01T03:44:52;9.10;99.90
16301;DHT22;8258;51.020;4.248;2023-04-01T03:47:19;9.10;99.90
16301;DHT22;8258;51.020;4.248;2023-04-01T03:49:47;9.10;99.90
16301;DHT22;8258;51.020;4.248;2023-04-01T03:52:14;9.00;99.90
16301;DHT22;8258;51.020;4.248;2023-04-01T03:54:41;9.00;99.90
16301;DHT22;8258;51.020;4.248;2023-04-01T03:57:08;9.10;99.90
16301;DHT22;8258;51.020;4.248;2023-04-01T03:59:35;9.10;99.90
16301;DHT22;8258;51.020;4.248;2023-04-01T04:02:02;9.00;99.90
16301;DHT22;8258;51.020;4.248;2023-04-01T04:04:29;9.00;99.90
16301;DHT22;8258;51.020;4.248;2023-04-01T04:06:59;9.00;99.90
16301;DHT22;8258;51.020;4.248;2023-04-01T04:09:26;9.00;99.90
16301;DHT22;8258;51.020;4.248;2023-04-01T04:11:52;9.00;99.90
16301;DHT22;8258;51.020;4.248;2023-04-01T04:14:19;9.00;99.90
16301;DHT22;8258;51.020;4.248;2023-04-01T04:16:46;9.00;99.90
16301;DHT22;8258;51.020;4.248;2023-04-01T04:19:13;9.00;99.90
16301;DHT22;8258;51.020;4.248;2023-04-01T04:21:41;9.00;99.90
16301;DHT22;8258;51.020;4.248;2023-04-01T04:24:09;9.00;99.90
16301;DHT22;8258;51.020;4.248;2023-04-01T04:26:36;9.00;99.90
16301;DHT22;8258;51.020;4.248;2023-04-01T04:29:03;9.00;99.90
16301;DHT22;8258;51.020;4.248;2023-04-01T04:31:30;9.00;99.90
16301;DHT22;8258;51.020;4.248;2023-04-01T04:34:00;9.00;99.90
16301;DHT22;8258;51.020;4.248;2023-04-01T04:36:27;9.00;99.90
16301;DHT22;8258;51.020;4.248;2023-04-01T04:38:55;9.00;99.90
16301;DHT22;8258;51.020;4.248;2023-04-01T04:41:24;9.00;99.90
16301;DHT22;8258;51.020;4.248;2023-04-01T04:43:53;9.00;99.90
16301;DHT22;8258;51.020;4.248;2023-04-01T04:46:21;9.00;99.90
16301;DHT22;8258;51.020;4.248;2023-04-01T04:48:48;9.00;99.90
16301;DHT22;8258;51.020;4.248;2023-04-01T04:51:16;8.90;99.90
16301;DHT22;8258;51.020;4.248;2023-04-01T04:53:44;8.90;99.90
16301;DHT22;8258;51.020;4.248;2023-04-01T04:56:11;8.90;99.90
16301;DHT22;8258;51.020;4.248;2023-04-01T04:58:40;8.90;99.90
16301;DHT22;8258;51.020;4.248;2023-04-01T05:01:09;9.00;99.90
16301;DHT22;8258;51.020;4.248;2023-04-01T05:03:37;9.00;99.90
16301;DHT22;8258;51.020;4.248;2023-04-01T05:06:05;9.00;99.90
16301;DHT22;8258;51.020;4.248;2023-04-01T05:08:32;8.90;99.90
16301;DHT22;8258;51.020;4.248;2023-04-01T05:11:03;8.90;99.90
16301;DHT22;8258;51.020;4.248;2023-04-01T05:13:30;8.90;99.90
16301;DHT22;8258;51.020;4.248;2023-04-01T05:15:58;8.90;99.90
16301;DHT22;8258;51.020;4.248;2023-04-01T05:18:25;8.90;99.90
16301;DHT22;8258;51.020;4.248;2023-04-01T05:20:53;8.90;99.90
16301;DHT22;8258;51.020;4.248;2023-04-01T05:23:21;8.90;99.90
16301;DHT22;8258;51.020;4.248;2023-04-01T05:25:49;9.00;99.90
16301;DHT22;8258;51.020;4.248;2023-04-01T05:28:16;9.00;99.90
16301;DHT22;8258;51.020;4.248;2023-04-01T05:30:44;8.90;99.90
16301;DHT22;8258;51.020;4.248;2023-04-01T05:33:13;9.00;99.90
16301;DHT22;8258;51.020;4.248;2023-04-01T05:35:40;9.00;99.90
16301;DHT22;8258;51.020;4.248;2023-04-01T05:38:07;9.00;99.90
16301;DHT22;8258;51.020;4.248;2023-04-01T05:40:34;9.00;99.90
16301;DHT22;8258;51.020;4.248;2023-04-01T05:43:01;9.00;99.90
16301;DHT22;8258;51.020;4.248;2023-04-01T05:45:28;9.00;99.90
16301;DHT22;8258;51.020;4.248;2023-04-01T05:47:55;9.00;99.90
16301;DHT22;8258;51.020;4.248;2023-04-01T05:50:24;9.00;99.90
16301;DHT22;8258;51.020;4.248;2023-04-01T05:52:50;9.00;99.90
16301;DHT22;8258;51.020;4.248;2023-04-01T05:55:17;9.00;99.90
16301;DHT22;8258;51.020;4.248;2023-04-01T05:57:45;9.00;99.90
16301;DHT22;8258;51.020;4.248;2023-04-01T06:00:14;9.00;99.90
16301;DHT22;8258;51.020;4.248;2023-04-01T06:02:42;9.00;99.90
16301;DHT22;8258;51.020;4.248;2023-04-01T06:05:15;9.00;99.90
16301;DHT22;8258;51.020;4.248;2023-04-01T06:07:45;9.00;99.90
16301;DHT22;8258;51.020;4.248;2023-04-01T06:10:15;9.00;99.90
16301;DHT22;8258;51.020;4.248;2023-04-01T06:12:54;8.90;99.90
16301;DHT22;8258;51.020;4.248;2023-04-01T06:15:29;8.90;99.90
16301;DHT22;8258;51.020;4.248;2023-04-01T06:21:04;8.90;99.90
16301;DHT22;8258;51.020;4.248;2023-04-01T06:23:41;9.00;99.90
16301;DHT22;8258;51.020;4.248;2023-04-01T06:26:31;9.00;99.90
16301;DHT22;8258;51.020;4.248;2023-04-01T06:32:22;8.90;99.90
16301;DHT22;8258;51.020;4.248;2023-04-01T06:35:07;8.90;99.90
16301;DHT22;8258;51.020;4.248;2023-04-01T06:37:52;9.00;99.90
16301;DHT22;8258;51.020;4.248;2023-04-01T06:40:44;8.90;99.90
16301;DHT22;8258;51.020;4.248;2023-04-01T06:43:19;8.90;99.90
16301;DHT22;8258;51.020;4.248;2023-04-01T06:45:53;8.90;99.90
16301;DHT22;8258;51.020;4.248;2023-04-01T06:48:38;8.90;99.90
16301;DHT22;8258;51.020;4.248;2023-04-01T06:51:14;8.90;99.90
16301;DHT22;8258;51.020;4.248;2023-04-01T06:53:47;8.90;99.90
16301;DHT22;8258;51.020;4.248;2023-04-01T06:56:22;8.90;99.90
16301;DHT22;8258;51.020;4.248;2023-04-01T06:58:54;8.90;99.90
16301;DHT22;8258;51.020;4.248;2023-04-01T07:01:25;8.90;99.90
16301;DHT22;8258;51.020;4.248;2023-04-01T07:03:57;8.90;99.90
16301;DHT22;8258;51.020;4.248;2023-04-01T07:06:28;9.00;99.90
16301;DHT22;8258;51.020;4.248;2023-04-01T07:09:00;9.00;99.90
16301;DHT22;8258;51.020;4.248;2023-04-01T07:11:31;9.00;99.90
16301;DHT22;8258;51.020;4.248;2023-04-01T07:14:02;9.10;99.90
16301;DHT22;8258;51.020;4.248;2023-04-01T07:16:33;9.10;99.90
16301;DHT22;8258;51.020;4.248;2023-04-01T07:19:04;9.10;99.90
16301;DHT22;8258;51.020;4.248;2023-04-01T07:21:36;9.20;99.90
16301;DHT22;8258;51.020;4.248;2023-04-01T07:24:11;9.30;99.90
16301;DHT22;8258;51.020;4.248;2023-04-01T07:26:42;9.30;99.90
16301;DHT22;8258;51.020;4.248;2023-04-01T07:29:11;9.30;99.90
16301;DHT22;8258;51.020;4.248;2023-04-01T07:32:04;9.30;99.90
16301;DHT22;8258;51.020;4.248;2023-04-01T07:34:35;9.30;99.90
16301;DHT22;8258;51.020;4.248;2023-04-01T07:37:11;9.40;99.90
16301;DHT22;8258;51.020;4.248;2023-04-01T07:39:45;9.50;99.90
16301;DHT22;8258;51.020;4.248;2023-04-01T07:42:23;9.50;99.90
16301;DHT22;8258;51.020;4.248;2023-04-01T07:44:58;9.50;99.90
16301;DHT22;8258;51.020;4.248;2023-04-01T07:47:35;9.40;99.90
16301;DHT22;8258;51.020;4.248;2023-04-01T07:50:13;9.50;99.90
16301;DHT22;8258;51.020;4.248;2023-04-01T07:52:50;9.40;99.90
16301;DHT22;8258;51.020;4.248;2023-04-01T07:55:24;9.50;99.90
16301;DHT22;8258;51.020;4.248;2023-04-01T07:58:01;9.50;99.90
16301;DHT22;8258;51.020;4.248;2023-04-01T08:00:34;9.60;99.90
16301;DHT22;8258;51.020;4.248;2023-04-01T08:03:18;9.50;99.90
16301;DHT22;8258;51.020;4.248;2023-04-01T08:05:54;9.50;99.90
16301;DHT22;8258;51.020;4.248;2023-04-01T08:08:30;9.50;99.90
16301;DHT22;8258;51.020;4.248;2023-04-01T08:11:06;9.60;99.90
16301;DHT22;8258;51.020;4.248;2023-04-01T08:13:40;9.60;99.90
16301;DHT22;8258;51.020;4.248;2023-04-01T08:16:13;9.50;99.90
16301;DHT22;8258;51.020;4.248;2023-04-01T08:18:50;9.60;99.90
16301;DHT22;8258;51.020;4.248;2023-04-01T08:21:24;9.60;99.90
16301;DHT22;8258;51.020;4.248;2023-04-01T08:23:54;9.60;99.90
16301;DHT22;8258;51.020;4.248;2023-04-01T08:26:28;9.50;99.90
16301;DHT22;8258;51.020;4.248;2023-04-01T08:29:01;9.50;99.90
16301;DHT22;8258;51.020;4.248;2023-04-01T08:31:34;9.60;99.90
16301;DHT22;8258;51.020;4.248;2023-04-01T08:34:14;9.60;99.90
16301;DHT22;8258;51.020;4.248;2023-04-01T08:36:47;9.70;99.90
16301;DHT22;8258;51.020;4.248;2023-04-01T08:39:21;9.70;99.90
16301;DHT22;8258;51.020;4.248;2023-04-01T08:42:12;9.70;99.90
16301;DHT22;8258;51.020;4.248;2023-04-01T08:51:19;9.90;99.90
16301;DHT22;8258;51.020;4.248;2023-04-01T08:56:53;9.90;99.90
16301;DHT22;8258;51.020;4.248;2023-04-01T08:59:31;9.90;99.90
16301;DHT22;8258;51.020;4.248;2023-04-01T09:05:30;10.00;99.90
16301;DHT22;8258;51.020;4.248;2023-04-01T09:08:17;10.00;99.90
16301;DHT22;8258;51.020;4.248;2023-04-01T09:10:58;10.00;99.90
16301;DHT22;8258;51.020;4.248;2023-04-01T09:13:56;10.00;99.90
16301;DHT22;8258;51.020;4.248;2023-04-01T09:16:43;10.10;99.90
16301;DHT22;8258;51.020;4.248;2023-04-01T09:19:31;10.10;99.90
16301;DHT22;8258;51.020;4.248;2023-04-01T09:25:29;10.10;99.90
16301;DHT22;8258;51.020;4.248;2023-04-01T09:28:00;10.00;99.90
16301;DHT22;8258;51.020;4.248;2023-04-01T09:33:47;10.10;99.90
16301;DHT22;8258;51.020;4.248;2023-04-01T09:36:27;10.10;99.90
16301;DHT22;8258;51.020;4.248;2023-04-01T09:39:10;10.20;99.90
16301;DHT22;8258;51.020;4.248;2023-04-01T09:41:48;10.20;99.90
16301;DHT22;8258;51.020;4.248;2023-04-01T09:44:23;10.20;99.90
16301;DHT22;8258;51.020;4.248;2023-04-01T09:47:05;10.30;99.90
16301;DHT22;8258;51.020;4.248;2023-04-01T09:49:55;10.30;99.90
16301;DHT22;8258;51.020;4.248;2023-04-01T09:52:31;10.30;99.90
16301;DHT22;8258;51.020;4.248;2023-04-01T09:55:19;10.30;99.90
16301;DHT22;8258;51.020;4.248;2023-04-01T09:58:21;10.40;99.90
16301;DHT22;8258;51.020;4.248;2023-04-01T10:01:16;10.50;99.90
16301;DHT22;8258;51.020;4.248;2023-04-01T10:07:31;10.60;99.90
16301;DHT22;8258;51.020;4.248;2023-04-01T10:10:31;10.60;99.90
16301;DHT22;8258;51.020;4.248;2023-04-01T10:20:17;10.50;99.90
16301;DHT22;8258;51.020;4.248;2023-04-01T10:23:07;10.50;99.90
16301;DHT22;8258;51.020;4.248;2023-04-01T10:26:23;10.50;99.90
16301;DHT22;8258;51.020;4.248;2023-04-01T10:29:30;10.60;99.90
16301;DHT22;8258;51.020;4.248;2023-04-01T10:35:44;10.20;99.90
16301;DHT22;8258;51.020;4.248;2023-04-01T10:44:44;10.20;99.90
16301;DHT22;8258;51.020;4.248;2023-04-01T10:47:44;10.40;99.90
16301;DHT22;8258;51.020;4.248;2023-04-01T10:53:37;10.30;99.90
16301;DHT22;8258;51.020;4.248;2023-04-01T10:56:39;10.50;99.90
16301;DHT22;8258;51.020;4.248;2023-04-01T10:59:32;10.60;99.90
16301;DHT22;8258;51.020;4.248;2023-04-01T11:05:57;10.60;99.90
16301;DHT22;8258;51.020;4.248;2023-04-01T11:09:07;10.50;99.90
16301;DHT22;8258;51.020;4.248;2023-04-01T11:12:21;10.50;99.90
16301;DHT22;8258;51.020;4.248;2023-04-01T11:18:29;10.30;99.90
16301;DHT22;8258;51.020;4.248;2023-04-01T11:27:08;10.50;99.90
16301;DHT22;8258;51.020;4.248;2023-04-01T11:29:47;10.60;99.90
16301;DHT22;8258;51.020;4.248;2023-04-01T11:32:34;10.90;99.90
16301;DHT22;8258;51.020;4.248;2023-04-01T11:35:38;11.30;99.90
16301;DHT22;8258;51.020;4.248;2023-04-01T11:38:31;11.30;99.90
16301;DHT22;8258;51.020;4.248;2023-04-01T11:41:14;11.40;99.90
16301;DHT22;8258;51.020;4.248;2023-04-01T11:43:59;11.40;99.90
16301;DHT22;8258;51.020;4.248;2023-04-01T11:46:33;11.60;99.90
16301;DHT22;8258;51.020;4.248;2023-04-01T11:49:07;11.40;99.90
16301;DHT22;8258;51.020;4.248;2023-04-01T11:52:01;11.30;99.90
16301;DHT22;8258;51.020;4.248;2023-04-01T11:54:56;11.30;99.90
16301;DHT22;8258;51.020;4.248;2023-04-01T11:57:42;11.20;99.90
16301;DHT22;8258;51.020;4.248;2023-04-01T12:00:30;11.10;99.90
16301;DHT22;8258;51.020;4.248;2023-04-01T12:03:16;11.00;99.90
16301;DHT22;8258;51.020;4.248;2023-04-01T12:05:51;10.80;99.90
16301;DHT22;8258;51.020;4.248;2023-04-01T12:08:30;10.80;99.90
16301;DHT22;8258;51.020;4.248;2023-04-01T12:11:03;10.90;99.90
16301;DHT22;8258;51.020;4.248;2023-04-01T12:13:39;10.90;99.90
16301;DHT22;8258;51.020;4.248;2023-04-01T12:16:24;10.80;99.90
16301;DHT22;8258;51.020;4.248;2023-04-01T12:18:59;10.70;99.90
16301;DHT22;8258;51.020;4.248;2023-04-01T12:21:35;10.70;99.90
16301;DHT22;8258;51.020;4.248;2023-04-01T12:24:33;10.80;99.90
16301;DHT22;8258;51.020;4.248;2023-04-01T12:27:44;10.90;99.90
16301;DHT22;8258;51.020;4.248;2023-04-01T12:30:40;11.10;99.90
16301;DHT22;8258;51.020;4.248;2023-04-01T12:33:27;10.90;99.90
16301;DHT22;8258;51.020;4.248;2023-04-01T12:36:05;11.00;99.90
16301;DHT22;8258;51.020;4.248;2023-04-01T12:38:41;11.00;99.90
16301;DHT22;8258;51.020;4.248;2023-04-01T12:41:21;11.10;99.90
16301;DHT22;8258;51.020;4.248;2023-04-01T12:44:26;10.90;99.90
16301;DHT22;8258;51.020;4.248;2023-04-01T12:50:23;10.90;99.90
16301;DHT22;8258;51.020;4.248;2023-04-01T12:53:01;10.90;99.90
16301;DHT22;8258;51.020;4.248;2023-04-01T12:55:41;11.00;99.90
16301;DHT22;8258;51.020;4.248;2023-04-01T13:01:41;10.70;99.90
16301;DHT22;8258;51.020;4.248;2023-04-01T13:04:45;10.60;99.90
16301;DHT22;8258;51.020;4.248;2023-04-01T13:10:50;10.60;99.90
16301;DHT22;8258;51.020;4.248;2023-04-01T13:13:42;10.80;99.90
16301;DHT22;8258;51.020;4.248;2023-04-01T13:16:14;11.00;99.90
16301;DHT22;8258;51.020;4.248;2023-04-01T13:18:55;11.10;99.90
16301;DHT22;8258;51.020;4.248;2023-04-01T13:21:35;11.20;99.90
16301;DHT22;8258;51.020;4.248;2023-04-01T13:24:12;11.10;99.90
16301;DHT22;8258;51.020;4.248;2023-04-01T13:26:51;11.00;99.90
16301;DHT22;8258;51.020;4.248;2023-04-01T13:29:21;11.00;99.90
16301;DHT22;8258;51.020;4.248;2023-04-01T13:32:00;10.90;99.90
16301;DHT22;8258;51.020;4.248;2023-04-01T13:34:38;11.00;99.90
16301;DHT22;8258;51.020;4.248;2023-04-01T13:37:22;10.90;99.90
16301;DHT22;8258;51.020;4.248;2023-04-01T13:40:02;10.90;99.90
16301;DHT22;8258;51.020;4.248;2023-04-01T13:42:35;10.70;99.90
16301;DHT22;8258;51.020;4.248;2023-04-01T13:45:13;10.60;99.90
16301;DHT22;8258;51.020;4.248;2023-04-01T13:48:04;10.60;99.90
16301;DHT22;8258;51.020;4.248;2023-04-01T13:54:22;10.40;99.90
16301;DHT22;8258;51.020;4.248;2023-04-01T13:57:00;10.50;99.90
16301;DHT22;8258;51.020;4.248;2023-04-01T13:59:57;10.50;99.90
16301;DHT22;8258;51.020;4.248;2023-04-01T14:02:50;10.60;99.90
16301;DHT22;8258;51.020;4.248;2023-04-01T14:05:36;10.70;99.90
16301;DHT22;8258;51.020;4.248;2023-04-01T14:08:14;10.70;99.90
16301;DHT22;8258;51.020;4.248;2023-04-01T14:10:51;10.90;99.90
16301;DHT22;8258;51.020;4.248;2023-04-01T14:13:28;11.30;99.90
16301;DHT22;8258;51.020;4.248;2023-04-01T14:16:07;11.40;99.90
16301;DHT22;8258;51.020;4.248;2023-04-01T14:19:01;11.70;99.90
16301;DHT22;8258;51.020;4.248;2023-04-01T14:21:37;11.90;99.90
16301;DHT22;8258;51.020;4.248;2023-04-01T14:24:23;12.00;99.90
16301;DHT22;8258;51.020;4.248;2023-04-01T14:27:24;11.90;99.90
16301;DHT22;8258;51.020;4.248;2023-04-01T14:30:19;12.00;99.90
16301;DHT22;8258;51.020;4.248;2023-04-01T14:32:56;11.90;99.90
16301;DHT22;8258;51.020;4.248;2023-04-01T14:35:34;11.90;99.90
16301;DHT22;8258;51.020;4.248;2023-04-01T14:40:56;11.60;99.90
16301;DHT22;8258;51.020;4.248;2023-04-01T14:46:36;11.00;99.90
16301;DHT22;8258;51.020;4.248;2023-04-01T14:49:17;10.90;99.90
16301;DHT22;8258;51.020;4.248;2023-04-01T14:51:47;10.70;99.90
16301;DHT22;8258;51.020;4.248;2023-04-01T14:54:17;10.50;99.90
16301;DHT22;8258;51.020;4.248;2023-04-01T14:56:49;10.60;99.90
16301;DHT22;8258;51.020;4.248;2023-04-01T14:59:27;10.70;99.90
16301;DHT22;8258;51.020;4.248;2023-04-01T15:02:01;10.70;99.90
16301;DHT22;8258;51.020;4.248;2023-04-01T15:04:50;10.60;99.90
16301;DHT22;8258;51.020;4.248;2023-04-01T15:07:44;10.50;99.90
16301;DHT22;8258;51.020;4.248;2023-04-01T15:10:31;10.50;99.90
16301;DHT22;8258;51.020;4.248;2023-04-01T15:13:16;10.70;99.90
16301;DHT22;8258;51.020;4.248;2023-04-01T15:16:13;10.70;99.90
16301;DHT22;8258;51.020;4.248;2023-04-01T15:18:53;10.60;99.90
16301;DHT22;8258;51.020;4.248;2023-04-01T15:24:22;10.50;99.90
16301;DHT22;8258;51.020;4.248;2023-04-01T15:27:10;10.50;99.90
16301;DHT22;8258;51.020;4.248;2023-04-01T15:32:54;10.70;99.90
16301;DHT22;8258;51.020;4.248;2023-04-01T15:35:34;10.60;99.90
16301;DHT22;8258;51.020;4.248;2023-04-01T15:38:06;10.50;99.90
16301;DHT22;8258;51.020;4.248;2023-04-01T15:40:41;10.40;99.90
16301;DHT22;8258;51.020;4.248;2023-04-01T15:43:21;10.30;99.90
16301;DHT22;8258;51.020;4.248;2023-04-01T15:45:58;10.30;99.90
16301;DHT22;8258;51.020;4.248;2023-04-01T15:48:50;10.40;99.90
16301;DHT22;8258;51.020;4.248;2023-04-01T15:51:28;10.40;99.90
16301;DHT22;8258;51.020;4.248;2023-04-01T15:54:25;10.20;99.90
16301;DHT22;8258;51.020;4.248;2023-04-01T15:57:03;10.20;99.90
16301;DHT22;8258;51.020;4.248;2023-04-01T15:59:49;10.20;99.90
16301;DHT22;8258;51.020;4.248;2023-04-01T16:02:21;10.30;99.90
16301;DHT22;8258;51.020;4.248;2023-04-01T16:04:57;10.20;99.90
16301;DHT22;8258;51.020;4.248;2023-04-01T16:10:55;10.10;99.90
16301;DHT22;8258;51.020;4.248;2023-04-01T16:13:35;10.00;99.90
16301;DHT22;8258;51.020;4.248;2023-04-01T16:16:14;10.00;99.90
16301;DHT22;8258;51.020;4.248;2023-04-01T16:19:02;10.00;99.90
16301;DHT22;8258;51.020;4.248;2023-04-01T16:21:41;10.00;99.90
16301;DHT22;8258;51.020;4.248;2023-04-01T16:24:17;10.00;99.90
16301;DHT22;8258;51.020;4.248;2023-04-01T16:26:52;9.90;99.90
16301;DHT22;8258;51.020;4.248;2023-04-01T16:29:28;10.00;99.90
16301;DHT22;8258;51.020;4.248;2023-04-01T16:32:12;9.90;99.90
16301;DHT22;8258;51.020;4.248;2023-04-01T16:34:44;9.90;99.90
16301;DHT22;8258;51.020;4.248;2023-04-01T16:37:19;9.90;99.90
16301;DHT22;8258;51.020;4.248;2023-04-01T16:39:52;9.90;99.90
16301;DHT22;8258;51.020;4.248;2023-04-01T16:42:28;9.90;99.90
16301;DHT22;8258;51.020;4.248;2023-04-01T16:45:01;9.80;99.90
16301;DHT22;8258;51.020;4.248;2023-04-01T16:47:30;9.70;99.90
16301;DHT22;8258;51.020;4.248;2023-04-01T16:50:05;9.70;99.90
16301;DHT22;8258;51.020;4.248;2023-04-01T16:52:47;9.80;99.90
16301;DHT22;8258;51.020;4.248;2023-04-01T16:55:19;9.80;99.90
16301;DHT22;8258;51.020;4.248;2023-04-01T16:57:50;9.80;99.90
16301;DHT22;8258;51.020;4.248;2023-04-01T17:00:26;9.80;99.90
16301;DHT22;8258;51.020;4.248;2023-04-01T17:03:03;9.70;99.90
16301;DHT22;8258;51.020;4.248;2023-04-01T17:05:49;9.80;99.90
16301;DHT22;8258;51.020;4.248;2023-04-01T17:08:33;9.70;99.90
16301;DHT22;8258;51.020;4.248;2023-04-01T17:11:09;9.70;99.90
16301;DHT22;8258;51.020;4.248;2023-04-01T17:13:46;9.60;99.90
16301;DHT22;8258;51.020;4.248;2023-04-01T17:19:24;9.50;99.90
16301;DHT22;8258;51.020;4.248;2023-04-01T17:21:58;9.50;99.90
16301;DHT22;8258;51.020;4.248;2023-04-01T17:24:42;9.50;99.90
16301;DHT22;8258;51.020;4.248;2023-04-01T17:27:22;9.60;99.90
16301;DHT22;8258;51.020;4.248;2023-04-01T17:30:12;9.50;99.90
16301;DHT22;8258;51.020;4.248;2023-04-01T17:32:50;9.70;99.90
16301;DHT22;8258;51.020;4.248;2023-04-01T17:35:21;9.60;99.90
16301;DHT22;8258;51.020;4.248;2023-04-01T17:38:02;9.60;99.90
16301;DHT22;8258;51.020;4.248;2023-04-01T17:40:41;9.60;99.90
16301;DHT22;8258;51.020;4.248;2023-04-01T17:43:17;9.50;99.90
16301;DHT22;8258;51.020;4.248;2023-04-01T17:45:52;9.50;99.90
16301;DHT22;8258;51.020;4.248;2023-04-01T17:48:29;9.50;99.90
16301;DHT22;8258;51.020;4.248;2023-04-01T17:51:19;9.50;99.90
16301;DHT22;8258;51.020;4.248;2023-04-01T17:53:54;9.40;99.90
16301;DHT22;8258;51.020;4.248;2023-04-01T17:56:36;9.40;99.90
16301;DHT22;8258;51.020;4.248;2023-04-01T17:59:10;9.30;99.90
16301;DHT22;8258;51.020;4.248;2023-04-01T18:01:46;9.30;99.90
16301;DHT22;8258;51.020;4.248;2023-04-01T18:04:46;9.20;99.90
16301;DHT22;8258;51.020;4.248;2023-04-01T18:07:43;9.10;99.90
16301;DHT22;8258;51.020;4.248;2023-04-01T18:10:21;9.20;99.90
16301;DHT22;8258;51.020;4.248;2023-04-01T18:13:29;9.20;99.90
16301;DHT22;8258;51.020;4.248;2023-04-01T18:16:06;9.20;99.90
16301;DHT22;8258;51.020;4.248;2023-04-01T18:18:46;9.20;99.90
16301;DHT22;8258;51.020;4.248;2023-04-01T18:21:18;9.10;99.90
16301;DHT22;8258;51.020;4.248;2023-04-01T18:23:53;9.00;99.90
16301;DHT22;8258;51.020;4.248;2023-04-01T18:26:24;9.10;99.90
16301;DHT22;8258;51.020;4.248;2023-04-01T18:28:57;9.00;99.90
16301;DHT22;8258;51.020;4.248;2023-04-01T18:31:32;9.00;99.90